Time;durP1;ratioP1;P1;durP2;ratioP2;P2;SDS_P1;SDS_P2;PMS_P1;PMS_P2;Temp;Humidity;BMP_temperature;BMP_pressure;BME280_temperature;BME280_humidity;BME280_pressure;Samples;Min_cycle;Max_cycle;Signal;HPM_P1;HPM_P2
2021/07/12 00:00:36;;;;;;;9.47;8.53;;;;;24.20;100337.00;;;;2058472;28;20657;-68
2021/07/12 00:01:36;;;;;;;10.10;9.20;;;;;24.20;100335.00;;;;2059114;28;20255;-67
2021/07/12 00:02:36;;;;;;;10.10;9.20;;;;;24.20;100337.00;;;;2040549;29;21712;-67
2021/07/12 00:03:37;;;;;;;10.07;9.17;;;;;24.20;100338.00;;;;2033979;29;20300;-66
2021/07/12 00:04:37;;;;;;;9.33;8.60;;;;;24.20;100336.00;;;;2049662;28;20227;-66
2021/07/12 00:05:40;;;;;;;9.53;8.73;;;;;24.20;100338.00;;;;2045873;28;21402;-66
2021/07/12 00:06:41;;;;;;;8.85;8.00;;;;;24.20;100333.00;;;;2046741;28;20247;-67
2021/07/12 00:07:41;;;;;;;9.47;8.63;;;;;24.20;100339.00;;;;2058996;28;20665;-67
2021/07/12 00:08:41;;;;;;;9.43;8.53;;;;;24.20;100333.00;;;;2058752;28;20215;-67
2021/07/12 00:09:42;;;;;;;9.90;9.10;;;;;24.20;100336.00;;;;2059026;28;20219;-67
2021/07/12 00:10:42;;;;;;;10.30;9.30;;;;;24.20;100335.00;;;;2058440;28;20581;-67
2021/07/12 00:11:43;;;;;;;9.17;8.37;;;;;24.20;100335.00;;;;2058236;28;20254;-67
2021/07/12 00:12:43;;;;;;;8.80;8.00;;;;;24.20;100334.00;;;;2058352;28;20378;-67
2021/07/12 00:13:44;;;;;;;9.40;8.50;;;;;24.20;100332.00;;;;2058381;28;20265;-67
2021/07/12 00:14:44;;;;;;;9.23;8.43;;;;;24.20;100321.00;;;;2058115;28;20636;-67
2021/07/12 00:15:45;;;;;;;8.60;7.90;;;;;24.20;100324.00;;;;2058734;28;20632;-67
2021/07/12 00:16:45;;;;;;;8.50;7.80;;;;;24.20;100333.00;;;;2059137;28;20242;-66
2021/07/12 00:17:46;;;;;;;9.20;8.40;;;;;24.20;100326.00;;;;2058759;28;20219;-67
2021/07/12 00:18:46;;;;;;;9.70;8.80;;;;;24.20;100323.00;;;;2059134;28;20723;-66
2021/07/12 00:19:46;;;;;;;8.30;7.60;;;;;24.20;100322.00;;;;2058247;28;20258;-67
2021/07/12 00:20:47;;;;;;;8.30;7.50;;;;;24.20;100322.00;;;;2057559;28;20214;-66
2021/07/12 00:21:47;;;;;;;8.53;7.83;;;;;24.20;100323.00;;;;2058298;28;20222;-66
2021/07/12 00:22:48;;;;;;;9.23;8.43;;;;;24.20;100317.00;;;;2058409;28;20215;-67
2021/07/12 00:23:51;;;;;;;8.30;7.60;;;;;24.20;100320.00;;;;2058414;28;20273;-67
2021/07/12 00:24:51;;;;;;;8.00;7.40;;;;;24.20;100318.00;;;;2059032;28;20250;-67
2021/07/12 00:25:52;;;;;;;8.70;8.00;;;;;24.20;100315.00;;;;2059146;28;20212;-67
2021/07/12 00:26:52;;;;;;;8.53;7.80;;;;;24.20;100322.00;;;;2061258;28;20296;-67
2021/07/12 00:27:52;;;;;;;9.20;8.20;;;;;24.20;100314.00;;;;2060387;28;20289;-67
2021/07/12 00:28:53;;;;;;;8.80;8.10;;;;;24.20;100308.00;;;;2060199;28;20214;-67
2021/07/12 00:29:56;;;;;;;8.30;7.60;;;;;24.20;100314.00;;;;2060505;28;20233;-67
2021/07/12 00:30:56;;;;;;;7.85;7.25;;;;;24.20;100319.00;;;;2057546;28;20216;-67
2021/07/12 00:31:56;;;;;;;8.30;7.60;;;;;24.20;100314.00;;;;2058290;28;20215;-67
2021/07/12 00:32:57;;;;;;;8.33;7.53;;;;;24.20;100313.00;;;;2059004;28;20581;-67
2021/07/12 00:33:57;;;;;;;8.17;7.50;;;;;24.20;100314.00;;;;2058804;28;20559;-67
2021/07/12 00:34:57;;;;;;;8.40;7.70;;;;;24.20;100312.00;;;;2059037;28;20218;-67
2021/07/12 00:35:58;;;;;;;8.23;7.53;;;;;24.20;100310.00;;;;2058748;28;20207;-67
2021/07/12 00:36:58;;;;;;;7.60;7.00;;;;;24.20;100309.00;;;;2058327;28;20708;-67
2021/07/12 00:37:59;;;;;;;7.90;7.20;;;;;24.20;100306.00;;;;2058331;28;20219;-67
2021/07/12 00:38:59;;;;;;;8.03;7.33;;;;;24.20;100264.00;;;;2058258;28;20206;-67
2021/07/12 00:40:00;;;;;;;8.60;7.90;;;;;24.20;100307.00;;;;2057987;28;20772;-67
2021/07/12 00:41:00;;;;;;;8.10;7.43;;;;;24.20;100308.00;;;;2058061;28;20854;-67
2021/07/12 00:42:00;;;;;;;7.53;6.83;;;;;24.20;100309.00;;;;2058881;28;20278;-67
2021/07/12 00:43:02;;;;;;;8.03;7.33;;;;;24.20;100301.00;;;;2059077;28;20215;-67
2021/07/12 00:44:06;;;;;;;7.05;6.55;;;;;24.20;100310.00;;;;2059053;28;20253;-67
2021/07/12 00:45:09;;;;;;;7.47;6.88;;;;;24.20;100307.00;;;;2058178;28;20758;-67
2021/07/12 00:46:09;;;;;;;7.28;6.68;;;;;24.20;100303.00;;;;2058102;28;20308;-67
2021/07/12 00:47:09;;;;;;;8.40;7.70;;;;;24.20;100299.00;;;;2058083;28;20251;-67
2021/07/12 00:48:10;;;;;;;7.50;6.90;;;;;24.20;100312.00;;;;2058276;28;20251;-67
2021/07/12 00:49:10;;;;;;;7.03;6.47;;;;;24.20;100306.00;;;;2058927;28;20215;-67
2021/07/12 00:50:11;;;;;;;7.47;6.87;;;;;24.20;100304.00;;;;2058825;28;20422;-67
2021/07/12 00:51:11;;;;;;;7.47;6.87;;;;;24.20;100301.00;;;;2050081;28;20215;-67
2021/07/12 00:52:12;;;;;;;7.00;6.40;;;;;24.20;100299.00;;;;2050530;28;20298;-67
2021/07/12 00:53:12;;;;;;;7.97;7.27;;;;;24.10;100302.00;;;;2049590;28;20302;-67
2021/07/12 00:54:12;;;;;;;7.37;6.77;;;;;24.10;100296.00;;;;2041522;29;20231;-67
2021/07/12 00:55:23;;;;;;;6.73;6.23;;;;;24.20;100299.00;;;;2041461;29;20244;-67
2021/07/12 00:56:24;;;;;;;6.75;6.25;;;;;24.20;100304.00;;;;2052077;28;20759;-66
2021/07/12 00:57:24;;;;;;;7.50;6.80;;;;;24.20;100309.00;;;;2058738;28;20222;-67
2021/07/12 00:58:26;;;;;;;6.97;6.47;;;;;24.20;100300.00;;;;2057092;28;20298;-67
2021/07/12 00:59:26;;;;;;;7.20;6.65;;;;;24.20;100302.00;;;;2056281;28;20266;-67
2021/07/12 01:00:27;;;;;;;7.07;6.47;;;;;24.10;100295.00;;;;2058012;28;20207;-67
2021/07/12 01:01:29;;;;;;;7.10;6.50;;;;;24.20;100300.00;;;;2058753;28;20250;-67
2021/07/12 01:02:30;;;;;;;7.53;6.93;;;;;24.20;100306.00;;;;2050404;28;20275;-67
2021/07/12 01:03:30;;;;;;;6.83;6.33;;;;;24.20;100303.00;;;;2049452;28;20219;-67
2021/07/12 01:04:31;;;;;;;7.03;6.43;;;;;24.20;100299.00;;;;2058178;28;20226;-67
2021/07/12 01:05:32;;;;;;;6.60;6.10;;;;;24.20;100308.00;;;;2057871;28;20242;-67
2021/07/12 01:06:33;;;;;;;7.25;6.53;;;;;24.20;100307.00;;;;2058171;28;20968;-67
2021/07/12 01:07:33;;;;;;;6.20;5.70;;;;;24.10;100307.00;;;;2057614;28;20313;-67
2021/07/12 01:08:33;;;;;;;6.67;6.10;;;;;24.10;100308.00;;;;2059213;28;20215;-67
2021/07/12 01:09:34;;;;;;;7.07;6.47;;;;;24.20;100303.00;;;;2060484;28;20219;-67
2021/07/12 01:10:34;;;;;;;6.57;6.07;;;;;24.20;100304.00;;;;2050062;28;20784;-67
2021/07/12 01:12:16;;;;;;;6.40;6.00;;;;;24.20;100307.00;;;;2052071;28;20216;-67
2021/07/12 01:13:38;;;;;;;7.20;6.50;;;;;24.20;100302.00;;;;2043028;28;20216;-67
2021/07/12 01:14:57;;;;;;;6.30;5.80;;;;;24.20;100304.00;;;;2048980;28;20315;-67
2021/07/12 01:16:20;;;;;;;6.22;5.72;;;;;24.20;100307.00;;;;2050856;28;20277;-67
2021/07/12 01:17:28;;;;;;;6.50;6.00;;;;;24.20;100302.00;;;;2031421;28;20216;-66
2021/07/12 01:18:33;;;;;;;6.97;6.38;;;;;24.20;100302.00;;;;2037965;28;20608;-66
2021/07/12 01:20:23;;;;;;;6.22;5.72;;;;;24.10;100300.00;;;;2044462;28;20319;-67
2021/07/12 01:21:49;;;;;;;6.97;6.38;;;;;24.20;100292.00;;;;2049110;28;20228;-67
2021/07/12 01:23:00;;;;;;;6.07;5.68;;;;;24.20;100304.00;;;;2054621;28;20227;-67
2021/07/12 01:24:10;;;;;;;6.50;6.00;;;;;24.10;100297.00;;;;2052660;28;20215;-67
2021/07/12 01:25:58;;;;;;;6.22;5.72;;;;;24.10;100294.00;;;;2060028;28;20215;-67
2021/07/12 01:27:29;;;;;;;5.90;5.35;;;;;24.20;100288.00;;;;2046640;28;20789;-67
2021/07/12 01:29:04;;;;;;;6.43;5.93;;;;;24.10;100293.00;;;;2054812;28;20305;-67
2021/07/12 01:30:15;;;;;;;5.38;4.97;;;;;24.20;100285.00;;;;2059424;28;20286;-67
2021/07/12 01:31:53;;;;;;;5.85;5.45;;;;;24.10;100288.00;;;;2054693;28;20206;-67
2021/07/12 01:33:14;;;;;;;6.28;5.78;;;;;24.10;100283.00;;;;2063656;28;20218;-67
2021/07/12 01:34:17;;;;;;;5.80;5.40;;;;;24.10;100273.00;;;;2059093;28;20254;-67
2021/07/12 01:35:17;;;;;;;5.93;5.43;;;;;24.10;100286.00;;;;2059343;28;20709;-67
2021/07/12 01:36:21;;;;;;;5.77;5.37;;;;;24.10;100283.00;;;;2067574;28;20215;-67
2021/07/12 01:37:45;;;;;;;6.07;5.03;;;;;24.10;100278.00;;;;2058955;28;20212;-66
2021/07/12 01:39:01;;;;;;;6.53;6.03;;;;;24.20;100273.00;;;;2054250;28;20219;-67
2021/07/12 01:40:03;;;;;;;5.70;5.30;;;;;24.10;100278.00;;;;2061172;28;20269;-67
2021/07/12 01:41:30;;;;;;;6.25;5.75;;;;;24.10;100274.00;;;;2067840;28;20219;-67
2021/07/12 01:42:55;;;;;;;5.70;5.30;;;;;24.10;100271.00;;;;2042286;28;20750;-67
2021/07/12 01:44:37;;;;;;;5.50;5.10;;;;;24.10;100274.00;;;;2054942;28;20206;-67
2021/07/12 01:45:50;;;;;;;5.90;5.50;;;;;24.10;100269.00;;;;2023574;29;20225;-67
2021/07/12 01:47:49;;;;;;;6.45;5.50;;;;;24.10;100270.00;;;;2052074;28;20370;-67
2021/07/12 01:49:04;;;;;;;5.68;5.25;;;;;24.10;100274.00;;;;2045931;28;20280;-67
2021/07/12 01:50:09;;;;;;;4.90;4.50;;;;;24.10;100275.00;;;;2038758;28;20746;-67
2021/07/12 01:51:10;;;;;;;5.63;5.07;;;;;24.10;100270.00;;;;2034668;29;20765;-67
2021/07/12 01:52:25;;;;;;;5.93;5.30;;;;;24.10;100277.00;;;;2038720;29;20228;-67
2021/07/12 01:53:45;;;;;;;5.68;5.28;;;;;24.10;100265.00;;;;2034888;29;20240;-67
2021/07/12 01:55:02;;;;;;;5.72;5.22;;;;;24.10;100260.00;;;;2047461;28;20272;-67
2021/07/12 01:56:02;;;;;;;5.72;5.32;;;;;24.10;100258.00;;;;2060723;28;20211;-67
2021/07/12 01:57:07;;;;;;;6.00;5.50;;;;;24.10;100251.00;;;;2070037;28;20215;-67
2021/07/12 01:58:19;;;;;;;5.75;5.35;;;;;24.10;100253.00;;;;2061489;28;20219;-66
2021/07/12 01:59:38;;;;;;;5.25;4.85;;;;;24.10;100260.00;;;;2049365;28;20240;-67
2021/07/12 02:00:40;;;;;;;5.40;5.00;;;;;24.10;100258.00;;;;2057518;28;20246;-67
2021/07/12 02:01:40;;;;;;;5.50;5.00;;;;;24.10;100252.00;;;;2062847;28;20215;-67
2021/07/12 02:02:42;;;;;;;5.60;5.20;;;;;24.10;100253.00;;;;2050801;28;20229;-67
2021/07/12 02:03:42;;;;;;;5.55;5.15;;;;;24.10;100250.00;;;;2067338;28;20219;-67
2021/07/12 02:04:43;;;;;;;5.40;5.00;;;;;24.10;100255.00;;;;2059373;28;20325;-67
2021/07/12 02:05:44;;;;;;;5.70;5.30;;;;;24.10;100240.00;;;;2059150;28;22421;-66
2021/07/12 02:06:44;;;;;;;5.00;4.60;;;;;24.10;100254.00;;;;2058534;28;20247;-66
2021/07/12 02:07:45;;;;;;;5.57;5.17;;;;;24.20;100242.00;;;;2058304;28;20733;-67
2021/07/12 02:08:46;;;;;;;4.73;4.43;;;;;24.10;100244.00;;;;2058354;28;20212;-67
2021/07/12 02:09:47;;;;;;;5.00;4.70;;;;;24.10;100239.00;;;;2042481;28;20220;-67
2021/07/12 02:10:49;;;;;;;5.07;4.70;;;;;24.10;100229.00;;;;2042866;28;20225;-67
2021/07/12 02:11:49;;;;;;;5.40;4.90;;;;;24.10;100237.00;;;;2051415;28;20452;-67
2021/07/12 02:12:50;;;;;;;5.27;4.87;;;;;24.10;100239.00;;;;2051182;28;20678;-66
2021/07/12 02:13:50;;;;;;;6.20;5.30;;;;;24.10;100238.00;;;;2050978;28;20302;-67
2021/07/12 02:14:50;;;;;;;4.83;4.53;;;;;24.10;100245.00;;;;2054800;28;20580;-67
2021/07/12 02:15:52;;;;;;;5.13;4.73;;;;;24.10;100235.00;;;;2054739;28;20222;-67
2021/07/12 02:16:53;;;;;;;5.35;4.75;;;;;24.10;100238.00;;;;2049531;28;20216;-67
2021/07/12 02:17:53;;;;;;;5.60;5.20;;;;;24.10;100234.00;;;;2049952;28;20311;-67
2021/07/12 02:18:53;;;;;;;5.80;5.40;;;;;24.10;100248.00;;;;2050680;28;20303;-68
2021/07/12 02:19:54;;;;;;;4.90;4.50;;;;;24.10;100237.00;;;;2050248;28;20303;-67
2021/07/12 02:20:54;;;;;;;5.40;4.90;;;;;24.10;100240.00;;;;2057858;28;20214;-67
2021/07/12 02:21:54;;;;;;;4.80;4.50;;;;;24.10;100240.00;;;;2050410;28;20227;-67
2021/07/12 02:22:56;;;;;;;4.50;4.20;;;;;24.10;100233.00;;;;2041674;28;20227;-67
2021/07/12 02:23:56;;;;;;;4.95;4.65;;;;;24.10;100244.00;;;;2057824;28;20237;-67
2021/07/12 02:24:56;;;;;;;5.33;4.90;;;;;24.10;100237.00;;;;2049753;28;20359;-67
2021/07/12 02:25:57;;;;;;;4.93;4.53;;;;;24.10;100233.00;;;;2049644;28;20255;-66
2021/07/12 02:26:58;;;;;;;5.17;4.70;;;;;24.10;100240.00;;;;2061472;28;20211;-67
2021/07/12 02:27:59;;;;;;;5.78;5.38;;;;;24.10;100240.00;;;;2058610;28;20758;-67
2021/07/12 02:29:01;;;;;;;5.60;5.20;;;;;24.10;100238.00;;;;2053875;28;20273;-67
2021/07/12 02:30:03;;;;;;;6.20;5.00;;;;;24.20;100241.00;;;;2053731;28;20266;-66
2021/07/12 02:31:04;;;;;;;5.35;4.90;;;;;24.10;100245.00;;;;2050446;28;20215;-66
2021/07/12 02:32:04;;;;;;;5.27;4.77;;;;;24.10;100236.00;;;;2050669;28;20251;-66
2021/07/12 02:33:04;;;;;;;5.20;4.80;;;;;24.10;100242.00;;;;2050557;28;20220;-66
2021/07/12 02:34:05;;;;;;;4.63;4.33;;;;;24.20;100237.00;;;;2055828;28;20212;-66
2021/07/12 02:35:09;;;;;;;4.87;4.57;;;;;24.20;100238.00;;;;2050781;28;20225;-66
2021/07/12 02:36:09;;;;;;;4.93;4.53;;;;;24.20;100234.00;;;;2051786;28;20652;-66
2021/07/12 02:37:11;;;;;;;4.70;4.40;;;;;24.20;100242.00;;;;2058867;28;20222;-66
2021/07/12 02:38:12;;;;;;;5.32;4.80;;;;;24.20;100242.00;;;;2050260;28;20310;-66
2021/07/12 02:39:12;;;;;;;4.50;4.20;;;;;24.20;100240.00;;;;2058257;28;20710;-66
2021/07/12 02:40:17;;;;;;;4.60;4.30;;;;;24.20;100241.00;;;;2049775;28;20722;-66
2021/07/12 02:41:17;;;;;;;5.30;4.80;;;;;24.20;100237.00;;;;2050854;28;20212;-66
2021/07/12 02:42:17;;;;;;;5.10;4.67;;;;;24.20;100230.00;;;;2050474;28;20212;-66
2021/07/12 02:43:18;;;;;;;4.73;4.33;;;;;24.20;100243.00;;;;2050701;28;20307;-66
2021/07/12 02:44:18;;;;;;;5.17;4.87;;;;;24.20;100231.00;;;;2058282;28;20604;-66
2021/07/12 02:45:19;;;;;;;4.70;4.40;;;;;24.20;100231.00;;;;2066825;28;20599;-66
2021/07/12 02:46:19;;;;;;;5.20;4.80;;;;;24.20;100227.00;;;;2057483;28;20219;-66
2021/07/12 02:47:20;;;;;;;4.70;4.37;;;;;24.20;100227.00;;;;2050056;28;21398;-66
2021/07/12 02:48:20;;;;;;;5.13;4.73;;;;;24.20;100228.00;;;;2057961;28;20223;-66
2021/07/12 02:49:20;;;;;;;4.77;4.37;;;;;24.10;100230.00;;;;2066488;28;20210;-66
2021/07/12 02:50:21;;;;;;;4.83;4.53;;;;;24.20;100226.00;;;;2049068;28;20275;-66
2021/07/12 02:51:26;;;;;;;5.63;4.27;;;;;24.20;100226.00;;;;2050711;28;20223;-66
2021/07/12 02:52:29;;;;;;;5.35;4.90;;;;;24.20;100225.00;;;;2058793;28;20215;-66
2021/07/12 02:53:31;;;;;;;5.10;4.60;;;;;24.10;100239.00;;;;2051152;28;20215;-66
2021/07/12 02:54:35;;;;;;;4.72;4.43;;;;;24.10;100236.00;;;;2049592;28;20219;-71
2021/07/12 02:55:35;;;;;;;5.50;5.05;;;;;24.20;100236.00;;;;2053755;28;20222;-67
2021/07/12 02:56:35;;;;;;;5.30;4.90;;;;;24.10;100236.00;;;;2047775;28;20715;-67
2021/07/12 02:57:36;;;;;;;5.47;5.07;;;;;24.10;100227.00;;;;2048169;28;20294;-66
2021/07/12 02:58:37;;;;;;;4.80;4.40;;;;;24.10;100240.00;;;;2046306;28;20207;-66
2021/07/12 02:59:37;;;;;;;5.35;4.95;;;;;24.10;100233.00;;;;2050984;28;20283;-67
2021/07/12 03:00:38;;;;;;;5.17;4.77;;;;;24.10;100230.00;;;;2058894;28;20210;-67
2021/07/12 03:01:38;;;;;;;5.33;4.93;;;;;24.20;100230.00;;;;2058967;28;20223;-66
2021/07/12 03:02:39;;;;;;;4.83;4.47;;;;;24.20;100235.00;;;;2058477;28;20219;-66
2021/07/12 03:03:40;;;;;;;5.32;4.93;;;;;24.20;100232.00;;;;2058426;28;20298;-67
2021/07/12 03:04:40;;;;;;;5.40;5.00;;;;;24.30;100231.00;;;;2058388;28;20220;-66
2021/07/12 03:05:40;;;;;;;5.23;4.80;;;;;24.20;100228.00;;;;2058474;28;20335;-67
2021/07/12 03:06:41;;;;;;;4.57;4.17;;;;;24.20;100226.00;;;;2058878;28;20226;-67
2021/07/12 03:07:45;;;;;;;4.90;4.50;;;;;24.20;100227.00;;;;2041644;29;20224;-66
2021/07/12 03:09:06;;;;;;;7.28;4.57;;;;;24.20;100227.00;;;;2035721;28;20632;-66
2021/07/12 03:10:13;;;;;;;5.00;4.60;;;;;24.20;100223.00;;;;2045659;28;20216;-66
2021/07/12 03:11:14;;;;;;;4.55;4.10;;;;;24.20;100218.00;;;;2043552;28;20219;-67
2021/07/12 03:12:24;;;;;;;5.10;4.70;;;;;24.20;100224.00;;;;2042115;29;20204;-66
2021/07/12 03:13:34;;;;;;;4.70;4.30;;;;;24.10;100221.00;;;;2043880;28;20228;-66
2021/07/12 03:14:41;;;;;;;6.00;5.50;;;;;24.10;100222.00;;;;2050456;28;20718;-66
2021/07/12 03:15:43;;;;;;;5.03;4.63;;;;;24.10;100218.00;;;;2046664;28;20278;-66
2021/07/12 03:16:43;;;;;;;4.93;4.45;;;;;24.10;100215.00;;;;2049774;28;20208;-66
2021/07/12 03:17:54;;;;;;;4.83;4.43;;;;;24.20;100220.00;;;;2041701;29;20240;-66
2021/07/12 03:18:55;;;;;;;4.25;3.95;;;;;24.20;100223.00;;;;2044502;28;20278;-68
2021/07/12 03:19:57;;;;;;;4.38;3.97;;;;;24.20;100213.00;;;;2041861;29;20224;-67
2021/07/12 03:21:02;;;;;;;4.50;4.15;;;;;24.20;100217.00;;;;2041267;29;20347;-67
2021/07/12 03:22:04;;;;;;;4.97;4.60;;;;;24.20;100212.00;;;;2042488;29;20303;-68
2021/07/12 03:23:04;;;;;;;4.65;4.35;;;;;24.20;100220.00;;;;2050525;28;20310;-67
2021/07/12 03:24:05;;;;;;;5.27;4.77;;;;;24.20;100217.00;;;;2042282;29;20216;-67
2021/07/12 03:25:06;;;;;;;4.90;4.57;;;;;24.20;100214.00;;;;2034602;29;20222;-67
2021/07/12 03:26:07;;;;;;;4.65;4.25;;;;;24.20;100224.00;;;;2049799;28;20281;-67
2021/07/12 03:27:09;;;;;;;5.10;4.80;;;;;24.20;100215.00;;;;2051890;28;20738;-67
2021/07/12 03:28:09;;;;;;;4.72;4.40;;;;;24.20;100222.00;;;;2042190;28;20220;-67
2021/07/12 03:29:11;;;;;;;4.20;3.90;;;;;24.20;100219.00;;;;2037207;29;20225;-67
2021/07/12 03:30:12;;;;;;;5.10;4.70;;;;;24.20;100223.00;;;;2041550;28;20231;-67
2021/07/12 03:31:12;;;;;;;4.50;4.10;;;;;24.20;100205.00;;;;2040779;29;20588;-67
2021/07/12 03:32:13;;;;;;;4.87;4.40;;;;;24.20;100213.00;;;;2041941;29;20220;-67
2021/07/12 03:33:14;;;;;;;4.43;4.07;;;;;24.20;100213.00;;;;2050212;28;20330;-67
2021/07/12 03:34:15;;;;;;;5.05;4.70;;;;;24.20;100212.00;;;;2042783;28;20217;-67
2021/07/12 03:35:16;;;;;;;5.78;5.28;;;;;24.20;100199.00;;;;2042586;28;20265;-67
2021/07/12 03:36:16;;;;;;;5.30;4.87;;;;;24.20;100200.00;;;;2042595;29;20777;-67
2021/07/12 03:37:21;;;;;;;7.97;5.90;;;;;24.20;100196.00;;;;2024781;29;20933;-67
2021/07/12 03:38:22;;;;;;;5.93;5.43;;;;;24.20;100201.00;;;;2049156;28;20230;-67
2021/07/12 03:39:22;;;;;;;7.97;7.27;;;;;24.20;100195.00;;;;2049892;28;20836;-67
2021/07/12 03:40:23;;;;;;;8.90;8.10;;;;;24.20;100200.00;;;;2049183;28;20464;-67
2021/07/12 03:41:23;;;;;;;11.43;10.33;;;;;24.20;100197.00;;;;2050412;28;21069;-67
2021/07/12 03:42:25;;;;;;;11.57;10.40;;;;;24.20;100200.00;;;;2049928;28;20307;-67
2021/07/12 03:43:25;;;;;;;17.67;15.98;;;;;24.20;100194.00;;;;2050499;28;20219;-67
2021/07/12 03:44:26;;;;;;;22.30;17.80;;;;;24.20;100198.00;;;;2058810;28;20660;-67
2021/07/12 03:45:26;;;;;;;24.20;21.60;;;;;24.20;100185.00;;;;2058179;28;20926;-67
2021/07/12 03:46:27;;;;;;;23.70;21.20;;;;;24.20;100194.00;;;;2058216;28;20211;-67
2021/07/12 03:47:33;;;;;;;29.20;25.33;;;;;24.20;100195.00;;;;2057610;28;20696;-67
2021/07/12 03:48:34;;;;;;;31.27;27.88;;;;;24.20;100195.00;;;;2058547;28;20223;-67
2021/07/12 03:49:35;;;;;;;33.78;29.35;;;;;24.20;100193.00;;;;2059080;28;20682;-67
2021/07/12 03:50:35;;;;;;;35.63;31.07;;;;;24.20;100201.00;;;;2056232;28;20218;-67
2021/07/12 03:51:36;;;;;;;33.10;29.60;;;;;24.20;100192.00;;;;2049665;28;20236;-67
2021/07/12 03:52:43;;;;;;;38.03;33.20;;;;;24.20;100192.00;;;;2041915;28;20761;-67
2021/07/12 03:53:43;;;;;;;40.47;36.17;;;;;24.20;100197.00;;;;2050955;28;20611;-67
2021/07/12 03:54:44;;;;;;;43.27;38.67;;;;;24.20;100192.00;;;;2058781;28;20214;-67
2021/07/12 03:55:44;;;;;;;46.90;40.73;;;;;24.20;100192.00;;;;2058847;28;20223;-67
2021/07/12 03:56:44;;;;;;;42.70;36.53;;;;;24.20;100193.00;;;;2058926;28;20326;-67
2021/07/12 03:57:45;;;;;;;42.53;37.97;;;;;24.20;100196.00;;;;2060728;28;20211;-67
2021/07/12 03:58:45;;;;;;;42.10;37.67;;;;;24.20;100184.00;;;;2060538;28;20219;-67
2021/07/12 03:59:45;;;;;;;44.10;38.90;;;;;24.20;100187.00;;;;2058681;28;20215;-67
2021/07/12 04:00:46;;;;;;;42.73;38.13;;;;;24.20;100193.00;;;;2057084;28;20721;-67
2021/07/12 04:01:46;;;;;;;44.83;39.90;;;;;24.20;100194.00;;;;2057396;28;20709;-67
2021/07/12 04:02:47;;;;;;;45.50;40.50;;;;;24.20;100192.00;;;;2058143;28;20769;-67
2021/07/12 04:03:51;;;;;;;43.93;39.13;;;;;24.20;100190.00;;;;2058110;28;20243;-67
2021/07/12 04:04:51;;;;;;;43.60;38.55;;;;;24.20;100188.00;;;;2049727;28;20226;-67
2021/07/12 04:05:52;;;;;;;44.03;38.77;;;;;24.20;100181.00;;;;2049314;28;20699;-67
2021/07/12 04:06:52;;;;;;;40.70;36.33;;;;;24.20;100187.00;;;;2057940;28;20752;-67
2021/07/12 04:07:53;;;;;;;41.67;36.20;;;;;24.20;100195.00;;;;2048205;28;20306;-67
2021/07/12 04:08:53;;;;;;;41.40;35.97;;;;;24.20;100193.00;;;;2058206;28;20691;-67
2021/07/12 04:09:53;;;;;;;39.83;35.67;;;;;24.20;100186.00;;;;2058277;28;20244;-67
2021/07/12 04:10:54;;;;;;;38.07;34.13;;;;;24.20;100187.00;;;;2058587;28;20223;-67
2021/07/12 04:11:56;;;;;;;37.40;33.40;;;;;24.20;100181.00;;;;2058654;28;20226;-67
2021/07/12 04:12:57;;;;;;;39.55;34.33;;;;;24.20;100178.00;;;;2058179;28;20568;-67
2021/07/12 04:13:58;;;;;;;36.08;32.28;;;;;24.10;100191.00;;;;2058016;28;20261;-67
2021/07/12 04:14:58;;;;;;;35.97;32.07;;;;;24.20;100189.00;;;;2058288;28;20226;-67
2021/07/12 04:15:58;;;;;;;38.10;33.67;;;;;24.20;100188.00;;;;2057975;28;20680;-67
2021/07/12 04:16:59;;;;;;;36.97;33.07;;;;;24.20;100190.00;;;;2058591;28;20220;-67
2021/07/12 04:17:59;;;;;;;35.63;31.23;;;;;24.20;100190.00;;;;2058625;28;20573;-67
2021/07/12 04:18:59;;;;;;;34.23;30.63;;;;;24.20;100184.00;;;;2057303;28;20212;-67
2021/07/12 04:20:00;;;;;;;34.53;31.00;;;;;24.20;100181.00;;;;2058909;28;20247;-67
2021/07/12 04:21:01;;;;;;;33.33;29.77;;;;;24.20;100185.00;;;;2058013;28;20269;-67
2021/07/12 04:22:01;;;;;;;34.77;31.13;;;;;24.20;100178.00;;;;2057990;28;20273;-67
2021/07/12 04:23:02;;;;;;;33.97;30.20;;;;;24.20;100178.00;;;;2057917;28;20226;-67
2021/07/12 04:24:02;;;;;;;36.00;32.20;;;;;24.20;100179.00;;;;2058025;28;20281;-67
2021/07/12 04:25:03;;;;;;;36.90;33.00;;;;;24.20;100175.00;;;;2058152;28;20541;-67
2021/07/12 04:26:04;;;;;;;34.22;30.65;;;;;24.20;100176.00;;;;2058355;28;20222;-67
2021/07/12 04:27:04;;;;;;;34.70;31.10;;;;;24.20;100174.00;;;;2060545;28;20211;-67
2021/07/12 04:28:05;;;;;;;35.67;31.97;;;;;24.20;100184.00;;;;2058117;28;20211;-67
2021/07/12 04:29:06;;;;;;;37.43;33.40;;;;;24.20;100178.00;;;;2061270;28;20215;-67
2021/07/12 04:30:07;;;;;;;39.28;34.15;;;;;24.20;100175.00;;;;2057865;28;23111;-67
2021/07/12 04:31:08;;;;;;;41.38;37.15;;;;;24.20;100172.00;;;;2057130;28;20229;-67
2021/07/12 04:32:09;;;;;;;41.50;37.03;;;;;24.20;100172.00;;;;2058068;28;20211;-67
2021/07/12 04:33:09;;;;;;;40.43;36.13;;;;;24.20;100180.00;;;;2058050;28;20724;-67
2021/07/12 04:34:09;;;;;;;43.10;38.43;;;;;24.20;100176.00;;;;2058784;28;20322;-67
2021/07/12 04:35:12;;;;;;;43.70;39.10;;;;;24.20;100174.00;;;;2058825;28;20270;-67
2021/07/12 04:36:13;;;;;;;43.97;39.17;;;;;24.20;100177.00;;;;2059114;28;20330;-67
2021/07/12 04:37:13;;;;;;;46.80;40.50;;;;;24.20;100172.00;;;;2058608;28;20884;-67
2021/07/12 04:38:13;;;;;;;44.80;39.23;;;;;24.20;100177.00;;;;2056119;28;20209;-67
2021/07/12 04:39:14;;;;;;;44.30;39.60;;;;;24.20;100176.00;;;;2057859;28;20218;-67
2021/07/12 04:40:14;;;;;;;46.57;41.47;;;;;24.20;100177.00;;;;2057562;28;20250;-68
2021/07/12 04:41:14;;;;;;;44.50;39.70;;;;;24.20;100181.00;;;;2057236;28;20215;-67
2021/07/12 04:42:15;;;;;;;45.17;40.17;;;;;24.20;100178.00;;;;2059168;28;20220;-67
2021/07/12 04:43:15;;;;;;;45.53;39.63;;;;;24.20;100193.00;;;;2061364;28;20281;-67
2021/07/12 04:44:15;;;;;;;41.57;37.07;;;;;24.20;100184.00;;;;2061241;28;20214;-67
2021/07/12 04:45:16;;;;;;;45.77;39.33;;;;;24.20;100189.00;;;;2060830;28;20206;-67
2021/07/12 04:46:16;;;;;;;44.17;37.60;;;;;24.20;100188.00;;;;2060928;28;20611;-67
2021/07/12 04:47:16;;;;;;;44.27;39.67;;;;;24.20;100186.00;;;;2060639;28;20234;-68
2021/07/12 04:48:17;;;;;;;41.83;37.30;;;;;24.20;100186.00;;;;2060446;28;20246;-67
2021/07/12 04:49:17;;;;;;;39.97;35.67;;;;;24.20;100192.00;;;;2060548;28;20698;-67
2021/07/12 04:50:17;;;;;;;39.90;34.87;;;;;24.20;100190.00;;;;2060051;28;20699;-67
2021/07/12 04:51:18;;;;;;;38.40;33.33;;;;;24.20;100190.00;;;;2061301;28;20887;-67
2021/07/12 04:52:18;;;;;;;37.93;34.03;;;;;24.20;100190.00;;;;2052973;28;20255;-67
2021/07/12 04:53:18;;;;;;;40.00;35.47;;;;;24.20;100192.00;;;;2052743;28;20226;-67
2021/07/12 04:54:19;;;;;;;38.33;34.07;;;;;24.20;100188.00;;;;2061372;28;20218;-67
2021/07/12 04:55:19;;;;;;;37.33;32.60;;;;;24.20;100191.00;;;;2060402;28;20224;-67
2021/07/12 04:56:19;;;;;;;36.60;32.80;;;;;24.20;100188.00;;;;2061207;28;20309;-67
2021/07/12 04:57:20;;;;;;;36.87;32.73;;;;;24.20;100189.00;;;;2063102;28;20210;-67
2021/07/12 04:58:20;;;;;;;35.83;32.07;;;;;24.20;100193.00;;;;2061290;28;20226;-67
2021/07/12 04:59:26;;;;;;;38.20;33.60;;;;;24.20;100189.00;;;;2060959;28;20223;-67
2021/07/12 05:00:26;;;;;;;37.60;31.83;;;;;24.20;100186.00;;;;2060496;28;20897;-67
2021/07/12 05:01:27;;;;;;;36.97;33.03;;;;;24.20;100193.00;;;;2059845;28;20223;-67
2021/07/12 05:02:28;;;;;;;36.63;32.80;;;;;24.20;100185.00;;;;2061324;28;20214;-67
2021/07/12 05:03:31;;;;;;;35.67;31.83;;;;;24.20;100188.00;;;;2060469;28;20226;-67
2021/07/12 05:04:32;;;;;;;36.25;32.45;;;;;24.20;100187.00;;;;2060334;28;20333;-67
2021/07/12 05:05:33;;;;;;;37.78;33.65;;;;;24.20;100177.00;;;;2060591;28;20215;-67
2021/07/12 05:06:34;;;;;;;39.93;35.83;;;;;24.20;100180.00;;;;2059847;28;20223;-67
2021/07/12 05:07:34;;;;;;;40.17;34.77;;;;;24.20;100178.00;;;;2060841;28;20247;-67
2021/07/12 05:08:35;;;;;;;35.37;31.60;;;;;24.20;100179.00;;;;2060391;28;20230;-67
2021/07/12 05:09:36;;;;;;;40.47;29.83;;;;;24.20;100177.00;;;;2061055;28;20214;-67
2021/07/12 05:10:39;;;;;;;26.70;22.73;;;;;24.10;100168.00;;;;2060143;28;20461;-68
2021/07/12 05:11:40;;;;;;;25.20;22.58;;;;;24.10;100175.00;;;;2060273;28;20211;-67